ハリファックス の空港の天気 - METARとTAF

ハリファックス国際空港 ( CYHZ / YHZ ) - カナダ ノバスコシア州ハリファックス
飛行場実況気象(Metar)
観測時間03/22 18:00 ADT (03/22 21:00 UTC)
風向・風速南東 8m/s 瞬間風速10m/s
視程2400m
天気現象弱い雨 霧雨 もや
全天を覆う雲 雲底高度 90m
気温5℃
湿度100%
気圧989.1hPa
METARCYHZ 222100Z 13015G20KT 1 1/2SM R23/5500VP6000FT/D -RADZ BR OVC003 05/05 A2919 RMK NS8 SLP891
過去の天気等 Google飛行場航空写真 Wunderground天気予報

過去48時間のMETAR

飛行場予報(TAF)
発表時間: 3/22 17:38 ADT (3/22 20:38 UTC)
予報対象時間: 22日18時 ADT ~ 23日15時 ADT
風向・風速南東 10m/s 瞬間風速 15m/s
視程1210m
天気現象弱い霧雨 弱い雨 もや
全天を覆う雲 雲底高度 90m
22日18時 ADT ~ 22日21時 ADT に一時的に
視程3220m
天気現象弱い雨 もや
全天を覆う雲 雲底高度 150m
22日21時 ADT から
風向・風速南南東 6m/s 瞬間風速 11m/s
視程800m
天気現象弱い雨 弱い霧雨 霧
全天を覆う雲 鉛直視程 60m
22日23時 ADT ~ 23日1時 ADT に徐々に
風向・風速南 8m/s 瞬間風速 13m/s
23日3時 ADT から
風向・風速南南西 9m/s 瞬間風速 14m/s
視程1210m
天気現象弱い霧雨 もや
全天を覆う雲 雲底高度 150m
23日7時 ADT ~ 23日9時 ADT に徐々に
風向・風速南南西 10m/s 瞬間風速 18m/s
23日10時 ADT から
風向・風速南 10m/s 瞬間風速 16m/s
視程3220m
天気現象弱い雨 もや
全天を覆う雲 雲底高度 210m
23日13時 ADT ~ 23日15時 ADT に徐々に
風向・風速南西 6m/s 瞬間風速 11m/s
TAF CYHZ 222038Z 2221/2318 13020G30KT 3/4SM -DZ -RA BR OVC003
TEMPO 2221/2224 2SM -RA BR OVC005
FM230000 16012G22KT 1/2SM -RA -DZ FG VV002
BECMG 2302/2304 18015G25KT
FM230600 20018G28KT 3/4SM -DZ BR OVC005
BECMG 2310/2312 20020G35KT
FM231300 19020G32KT 2SM -RA BR OVC007
BECMG 2316/2318 23012G22KT RMK NXT FCST BY 230000Z